createdAt,value
2023-04-14T00:00:10.132Z,16.24
2023-04-14T00:02:39.750Z,16.77
2023-04-14T00:05:06.880Z,16.57
2023-04-14T00:07:33.685Z,16.45
2023-04-14T00:10:00.610Z,16.69
2023-04-14T00:12:27.311Z,16.95
2023-04-14T00:14:54.036Z,17.08
2023-04-14T00:17:20.817Z,17.23
2023-04-14T00:19:47.581Z,17.18
2023-04-14T00:22:14.189Z,16.94
2023-04-14T00:24:43.555Z,16.95
2023-04-14T00:27:11.161Z,17.08
2023-04-14T00:29:41.044Z,16.83
2023-04-14T00:32:10.026Z,17.01
2023-04-14T00:34:36.679Z,17.25
2023-04-14T00:37:05.172Z,17.20
2023-04-14T00:39:31.798Z,16.99
2023-04-14T00:42:01.838Z,16.02
2023-04-14T00:44:29.609Z,16.39
2023-04-14T00:46:57.954Z,16.66
2023-04-14T00:49:25.886Z,16.88
2023-04-14T00:51:53.144Z,16.95
2023-04-14T00:54:20.112Z,17.08
2023-04-14T00:56:47.205Z,17.18
2023-04-14T00:59:14.350Z,17.16
2023-04-14T01:01:41.563Z,17.25
2023-04-14T01:04:08.797Z,17.23
2023-04-14T01:06:36.660Z,16.97
2023-04-14T01:09:04.312Z,16.87
2023-04-14T01:11:42.737Z,17.05
2023-04-14T01:14:12.638Z,16.55
2023-04-14T01:16:41.084Z,16.96
2023-04-14T01:19:10.872Z,16.89
2023-04-14T01:21:41.662Z,16.50
2023-04-14T01:24:20.730Z,16.88
2023-04-14T01:26:48.083Z,16.69
2023-04-14T01:29:33.793Z,16.63
2023-04-14T01:32:05.539Z,16.86
2023-04-14T01:34:44.171Z,16.66
2023-04-14T01:37:15.714Z,16.71
2023-04-14T01:39:45.665Z,16.98
2023-04-14T01:42:15.123Z,17.12
2023-04-14T01:44:42.726Z,16.56
2023-04-14T01:47:12.031Z,16.31
2023-04-14T01:49:39.926Z,16.84
2023-04-14T01:52:11.522Z,16.58
2023-04-14T01:54:39.913Z,16.86
2023-04-14T01:57:08.099Z,16.78
2023-04-14T01:59:36.696Z,16.92
2023-04-14T02:02:04.387Z,16.22
2023-04-14T02:04:32.191Z,16.65
2023-04-14T02:07:00.507Z,16.92
2023-04-14T02:09:28.079Z,16.34
2023-04-14T02:11:55.407Z,15.78
2023-04-14T02:14:23.765Z,16.43
2023-04-14T02:16:51.219Z,16.72
2023-04-14T02:19:19.243Z,16.70
2023-04-14T02:21:46.763Z,16.87
2023-04-14T02:24:13.549Z,16.94
2023-04-14T02:26:43.563Z,17.04
2023-04-14T02:29:12.248Z,16.86
2023-04-14T02:31:46.340Z,16.77
2023-04-14T02:34:15.977Z,16.30
2023-04-14T02:36:45.252Z,16.46
2023-04-14T02:39:21.651Z,16.34
2023-04-14T02:41:53.479Z,16.54
2023-04-14T02:44:23.405Z,15.97
2023-04-14T02:47:03.827Z,16.04
2023-04-14T02:49:46.977Z,16.02
2023-04-14T02:52:16.519Z,15.96
2023-04-14T02:54:46.375Z,15.96
2023-04-14T02:57:14.315Z,16.04
2023-04-14T02:59:45.843Z,16.09
2023-04-14T03:02:13.647Z,15.87
2023-04-14T03:04:45.473Z,15.91
2023-04-14T03:07:24.304Z,15.72
2023-04-14T03:09:51.687Z,15.91
2023-04-14T03:12:20.038Z,15.84
2023-04-14T03:14:47.786Z,15.45
2023-04-14T03:17:15.002Z,15.80
2023-04-14T03:19:48.040Z,16.25
2023-04-14T03:22:16.024Z,15.94
2023-04-14T03:24:44.396Z,15.25
2023-04-14T03:27:18.924Z,15.77
2023-04-14T03:29:47.737Z,16.05
2023-04-14T03:32:15.707Z,16.09
2023-04-14T03:34:43.461Z,16.29
2023-04-14T03:37:13.415Z,16.40
2023-04-14T03:39:40.928Z,16.22
2023-04-14T03:42:08.599Z,16.21
2023-04-14T03:44:37.785Z,16.37
2023-04-14T03:47:08.059Z,16.50
2023-04-14T03:49:36.369Z,16.35
2023-04-14T03:52:08.041Z,16.31
2023-04-14T03:54:36.548Z,16.40
2023-04-14T03:57:06.211Z,15.43
2023-04-14T03:59:35.270Z,15.72
2023-04-14T04:02:03.165Z,15.64
2023-04-14T04:04:34.765Z,15.96
2023-04-14T04:07:01.840Z,16.09
2023-04-14T04:09:29.930Z,16.28
2023-04-14T04:12:00.078Z,15.90
2023-04-14T04:14:28.220Z,15.98
2023-04-14T04:16:56.473Z,16.09
2023-04-14T04:19:23.896Z,16.21
2023-04-14T04:21:52.967Z,16.32
2023-04-14T04:24:23.087Z,16.46
2023-04-14T04:26:51.600Z,16.46
2023-04-14T04:29:18.901Z,16.30
2023-04-14T04:31:45.774Z,16.78
2023-04-14T04:34:14.680Z,16.71
2023-04-14T04:36:42.303Z,16.63
2023-04-14T04:39:09.317Z,16.37
2023-04-14T04:41:39.739Z,16.59
2023-04-14T04:44:06.572Z,16.52
2023-04-14T04:46:54.020Z,16.31
2023-04-14T04:49:25.071Z,16.75
2023-04-14T04:51:53.619Z,16.88
2023-04-14T04:54:21.698Z,16.97
2023-04-14T04:56:48.372Z,16.98
2023-04-14T04:59:15.111Z,16.81
2023-04-14T05:01:41.839Z,17.02
2023-04-14T05:04:08.632Z,17.41
2023-04-14T05:06:37.567Z,17.17
2023-04-14T05:09:04.984Z,16.78
2023-04-14T05:11:32.202Z,16.54
2023-04-14T05:13:58.990Z,16.72
2023-04-14T05:16:25.914Z,16.46
2023-04-14T05:18:52.724Z,16.91
2023-04-14T05:21:19.473Z,16.74
2023-04-14T05:23:46.434Z,17.21
2023-04-14T05:28:43.215Z,17.34
2023-04-14T05:31:09.960Z,17.06
2023-04-14T05:36:20.831Z,17.14
2023-04-14T05:38:47.493Z,17.32
2023-04-14T05:41:14.175Z,17.48
2023-04-14T05:43:41.200Z,17.53
2023-04-14T05:46:07.924Z,17.44
2023-04-14T05:48:37.727Z,17.56
2023-04-14T05:51:04.395Z,17.35
2023-04-14T05:53:31.019Z,17.73
2023-04-14T05:55:57.757Z,17.51
2023-04-14T05:58:26.771Z,17.59
2023-04-14T06:00:53.749Z,17.59
2023-04-14T06:03:20.586Z,17.65
2023-04-14T06:05:48.281Z,17.83
2023-04-14T06:08:14.896Z,17.69
2023-04-14T06:10:41.663Z,17.38
2023-04-14T06:13:08.813Z,17.41
2023-04-14T06:15:35.679Z,17.14
2023-04-14T06:18:02.279Z,17.48
2023-04-14T06:20:31.859Z,17.41
2023-04-14T06:23:00.869Z,17.30
2023-04-14T06:25:27.715Z,17.49
2023-04-14T06:27:57.118Z,17.20
2023-04-14T06:30:23.804Z,17.26
2023-04-14T06:32:54.350Z,17.94
2023-04-14T06:35:32.362Z,17.89
2023-04-14T06:38:03.365Z,17.73
2023-04-14T06:40:30.024Z,17.96
2023-04-14T06:42:57.831Z,18.06
2023-04-14T06:45:24.595Z,18.23
2023-04-14T06:47:51.685Z,18.38
2023-04-14T06:50:18.566Z,18.45
2023-04-14T06:52:45.598Z,17.80
2023-04-14T06:55:12.200Z,18.00
2023-04-14T06:57:40.223Z,17.88
2023-04-14T07:00:07.369Z,17.99
2023-04-14T07:02:34.248Z,17.97
2023-04-14T07:05:00.929Z,18.40
2023-04-14T07:07:27.680Z,18.60
2023-04-14T07:09:54.426Z,18.24
2023-04-14T07:12:21.210Z,18.17
2023-04-14T07:14:52.136Z,18.50
2023-04-14T07:17:19.077Z,18.86
2023-04-14T07:19:46.228Z,19.28
2023-04-14T07:22:13.139Z,19.30
2023-04-14T07:24:40.467Z,19.34
2023-04-14T07:27:07.505Z,19.56
2023-04-14T07:29:34.415Z,19.55
2023-04-14T07:32:01.208Z,19.76
2023-04-14T07:34:28.089Z,19.72
2023-04-14T07:36:54.870Z,19.86
2023-04-14T07:39:23.859Z,19.58
2023-04-14T07:41:50.679Z,20.04
2023-04-14T07:44:17.348Z,20.16
2023-04-14T07:46:44.453Z,20.54
2023-04-14T07:49:11.372Z,20.76
2023-04-14T07:51:38.453Z,20.82
2023-04-14T07:54:06.223Z,20.55
2023-04-14T07:56:33.128Z,20.03
2023-04-14T07:59:00.073Z,20.19
2023-04-14T08:01:27.217Z,20.13
2023-04-14T08:03:54.170Z,20.41
2023-04-14T08:06:22.244Z,20.54
2023-04-14T08:08:48.853Z,21.29
2023-04-14T08:11:15.635Z,20.84
2023-04-14T08:13:42.659Z,21.48
2023-04-14T08:16:09.498Z,20.86
2023-04-14T08:18:36.458Z,20.99
2023-04-14T08:21:03.193Z,21.43
2023-04-14T08:23:29.809Z,21.67
2023-04-14T08:25:56.608Z,21.50
2023-04-14T08:28:23.140Z,21.79
2023-04-14T08:30:49.925Z,21.63
2023-04-14T08:33:16.722Z,21.75
2023-04-14T08:35:43.895Z,21.94
2023-04-14T08:38:11.074Z,22.00
2023-04-14T08:40:41.899Z,22.06
2023-04-14T08:43:08.832Z,22.54
2023-04-14T08:45:35.854Z,22.98
2023-04-14T08:48:03.374Z,23.12
2023-04-14T08:50:36.794Z,22.96
2023-04-14T08:53:06.151Z,23.38
2023-04-14T08:55:33.458Z,23.12
2023-04-14T08:58:01.243Z,23.18
2023-04-14T09:00:27.962Z,23.58
2023-04-14T09:02:56.211Z,23.73
2023-04-14T09:05:23.243Z,23.94
2023-04-14T09:07:49.984Z,24.37
2023-04-14T09:10:16.949Z,24.38
2023-04-14T09:12:44.143Z,23.48
2023-04-14T09:15:11.570Z,23.76
2023-04-14T09:17:38.544Z,23.96
2023-04-14T09:20:38.898Z,23.86
2023-04-14T09:22:53.118Z,24.30
2023-04-14T09:25:21.132Z,24.29
2023-04-14T09:27:50.652Z,24.66
2023-04-14T09:30:20.727Z,24.16
2023-04-14T09:32:51.184Z,24.94
2023-04-14T09:35:17.855Z,24.84
2023-04-14T09:37:45.028Z,24.39
2023-04-14T09:40:27.082Z,23.94
2023-04-14T09:42:54.328Z,23.34
2023-04-14T09:45:21.143Z,23.40
2023-04-14T09:47:47.871Z,24.36
2023-04-14T09:50:15.771Z,24.88
2023-04-14T09:52:44.621Z,24.82
2023-04-14T09:55:12.505Z,24.73
2023-04-14T09:57:47.644Z,23.98
2023-04-14T10:00:24.621Z,24.78
2023-04-14T10:02:55.978Z,24.64
2023-04-14T10:05:26.488Z,24.50
2023-04-14T10:07:53.192Z,24.17
2023-04-14T10:10:19.875Z,24.92
2023-04-14T10:12:47.279Z,24.30
2023-04-14T10:15:15.415Z,24.95
2023-04-14T10:17:42.770Z,24.06
2023-04-14T10:20:10.127Z,24.27
2023-04-14T10:22:37.523Z,23.99
2023-04-14T10:25:05.741Z,23.58
2023-04-14T10:27:33.622Z,23.24
2023-04-14T10:30:00.643Z,23.13
2023-04-14T10:32:31.327Z,22.93
2023-04-14T10:35:05.493Z,23.28
2023-04-14T10:37:35.311Z,23.30
2023-04-14T10:40:05.619Z,23.29
2023-04-14T10:42:52.804Z,22.23
2023-04-14T10:45:19.597Z,20.98
2023-04-14T10:47:46.383Z,21.02
2023-04-14T10:50:14.207Z,20.84
2023-04-14T10:52:51.984Z,20.07
2023-04-14T10:55:21.605Z,19.61
2023-04-14T10:57:48.471Z,19.54
2023-04-14T11:00:28.495Z,19.57
2023-04-14T11:02:56.768Z,19.40
2023-04-14T11:05:24.463Z,19.62
2023-04-14T11:07:56.356Z,19.38
2023-04-14T11:10:24.048Z,18.23
2023-04-14T11:13:00.797Z,17.85
2023-04-14T11:15:47.049Z,18.17
2023-04-14T11:18:20.021Z,18.57
2023-04-14T11:20:47.032Z,18.57
2023-04-14T11:23:14.864Z,18.34
2023-04-14T11:25:41.551Z,18.49
2023-04-14T11:28:08.830Z,18.05
2023-04-14T11:30:35.452Z,17.65
2023-04-14T11:33:02.627Z,18.15
2023-04-14T11:35:33.682Z,17.17
2023-04-14T11:38:01.021Z,17.16
2023-04-14T11:40:28.025Z,16.45
2023-04-14T11:42:58.340Z,17.04
2023-04-14T11:45:29.184Z,16.90
2023-04-14T11:47:57.012Z,17.00
2023-04-14T11:50:23.744Z,16.86
2023-04-14T11:52:50.552Z,16.88
2023-04-14T11:55:17.702Z,16.80
2023-04-14T11:57:48.161Z,17.10
2023-04-14T12:00:15.325Z,17.07
2023-04-14T12:02:45.762Z,16.49
2023-04-14T12:05:14.080Z,15.49
2023-04-14T12:07:45.864Z,15.21
2023-04-14T12:10:13.440Z,15.82
2023-04-14T12:12:40.043Z,14.68
2023-04-14T12:15:07.260Z,15.70
2023-04-14T12:17:34.259Z,15.32
2023-04-14T12:20:00.939Z,15.76
2023-04-14T12:22:28.853Z,14.86
2023-04-14T12:24:56.042Z,14.86
2023-04-14T12:27:24.612Z,15.24
2023-04-14T12:29:51.825Z,15.57
2023-04-14T12:32:22.390Z,15.07
2023-04-14T12:34:57.697Z,14.81
2023-04-14T12:37:26.652Z,14.84
2023-04-14T12:39:57.631Z,14.42
2023-04-14T12:42:25.397Z,14.57
2023-04-14T12:44:54.807Z,14.69
2023-04-14T12:47:31.811Z,14.62
2023-04-14T12:50:00.399Z,14.97
2023-04-14T12:52:38.158Z,15.30
2023-04-14T12:55:19.102Z,15.51
2023-04-14T12:57:45.831Z,15.11
2023-04-14T13:00:13.748Z,15.07
2023-04-14T13:02:43.570Z,15.09
2023-04-14T13:05:12.246Z,15.13
2023-04-14T13:07:39.030Z,15.30
2023-04-14T13:10:06.980Z,15.23
2023-04-14T13:12:33.933Z,14.81
2023-04-14T13:15:01.048Z,15.55
2023-04-14T13:17:27.870Z,15.03
2023-04-14T13:19:55.767Z,15.19
2023-04-14T13:22:22.925Z,15.21
2023-04-14T13:24:52.415Z,15.06
2023-04-14T13:27:19.821Z,15.54
2023-04-14T13:29:46.427Z,15.10
2023-04-14T13:32:13.284Z,15.35
2023-04-14T13:34:41.879Z,15.54
2023-04-14T13:37:08.551Z,15.18
2023-04-14T13:39:35.350Z,15.37
2023-04-14T13:42:02.094Z,15.07
2023-04-14T13:44:29.635Z,15.85
2023-04-14T13:46:56.665Z,16.87
2023-04-14T13:49:23.739Z,16.80
2023-04-14T13:51:50.327Z,16.89
2023-04-14T13:54:18.034Z,16.55
2023-04-14T13:56:44.829Z,15.73
2023-04-14T13:59:11.523Z,16.81
2023-04-14T14:01:38.184Z,16.98
2023-04-14T14:04:05.024Z,16.47
2023-04-14T14:06:31.919Z,16.77
2023-04-14T14:09:06.513Z,16.55
2023-04-14T14:11:34.849Z,16.63
2023-04-14T14:14:01.875Z,15.66
2023-04-14T14:16:36.693Z,16.70
2023-04-14T14:19:07.328Z,16.51
2023-04-14T14:21:34.377Z,16.09
2023-04-14T14:24:01.532Z,17.25
2023-04-14T14:26:28.300Z,17.30
2023-04-14T14:28:55.188Z,17.62
2023-04-14T14:31:22.057Z,17.77
2023-04-14T14:33:48.768Z,18.08
2023-04-14T14:36:15.403Z,18.12
2023-04-14T14:38:42.102Z,18.17
2023-04-14T14:41:08.745Z,17.64
2023-04-14T14:43:36.177Z,17.62
2023-04-14T14:46:04.268Z,17.63
2023-04-14T14:48:31.489Z,17.63
2023-04-14T14:50:58.258Z,17.55
2023-04-14T14:53:24.788Z,17.75
2023-04-14T14:55:51.805Z,17.97
2023-04-14T14:58:18.481Z,18.36
2023-04-14T15:00:45.093Z,18.85
2023-04-14T15:03:12.347Z,18.53
2023-04-14T15:05:39.141Z,19.15
2023-04-14T15:08:05.831Z,19.07
2023-04-14T15:10:33.069Z,19.36
2023-04-14T15:12:59.675Z,19.51
2023-04-14T15:15:26.449Z,19.77
2023-04-14T15:17:53.162Z,18.86
2023-04-14T15:20:19.996Z,18.89
2023-04-14T15:22:46.744Z,19.34
2023-04-14T15:25:13.431Z,19.93
2023-04-14T15:27:40.317Z,20.20
2023-04-14T15:30:08.263Z,20.72
2023-04-14T15:32:35.172Z,20.76
2023-04-14T15:35:02.116Z,20.37
2023-04-14T15:37:30.027Z,21.22
2023-04-14T15:39:59.403Z,20.99
2023-04-14T15:42:27.381Z,21.42
2023-04-14T15:44:55.552Z,21.37
2023-04-14T15:47:22.363Z,21.13
2023-04-14T15:49:51.789Z,21.00
2023-04-14T15:52:19.940Z,21.08
2023-04-14T15:54:46.609Z,20.83
2023-04-14T15:57:13.185Z,20.50
2023-04-14T15:59:39.981Z,20.44
2023-04-14T16:02:07.174Z,19.63
2023-04-14T16:04:34.155Z,19.54
2023-04-14T16:07:00.917Z,19.62
2023-04-14T16:09:27.626Z,19.87
2023-04-14T16:11:54.385Z,19.60
2023-04-14T16:14:22.047Z,19.43
2023-04-14T16:16:48.760Z,19.19
2023-04-14T16:19:16.240Z,19.39
2023-04-14T16:21:43.240Z,19.37
2023-04-14T16:24:10.158Z,19.33
2023-04-14T16:26:38.655Z,19.23
2023-04-14T16:29:06.102Z,19.08
2023-04-14T16:31:32.846Z,19.13
2023-04-14T16:33:59.852Z,19.29
2023-04-14T16:36:27.334Z,19.26
2023-04-14T16:38:54.376Z,18.92
2023-04-14T16:41:21.389Z,19.04
2023-04-14T16:43:48.182Z,19.14
2023-04-14T16:46:15.600Z,18.83
2023-04-14T16:48:42.266Z,18.72
2023-04-14T16:51:10.616Z,18.65
2023-04-14T16:53:38.700Z,18.20
2023-04-14T16:56:05.773Z,18.15
2023-04-14T16:58:34.046Z,18.06
2023-04-14T17:01:01.625Z,17.70
2023-04-14T17:03:29.028Z,18.08
2023-04-14T17:05:56.275Z,18.51
2023-04-14T17:08:23.415Z,18.61
2023-04-14T17:10:50.433Z,18.65
2023-04-14T17:13:17.115Z,18.63
2023-04-14T17:15:44.050Z,18.52
2023-04-14T17:18:11.714Z,18.47
2023-04-14T17:20:41.553Z,18.12
2023-04-14T17:23:10.208Z,18.35
2023-04-14T17:25:37.341Z,18.01
2023-04-14T17:28:05.018Z,18.29
2023-04-14T17:30:33.807Z,18.18
2023-04-14T17:33:04.068Z,18.02
2023-04-14T17:35:31.473Z,18.18
2023-04-14T17:37:58.374Z,17.83
2023-04-14T17:40:25.440Z,17.34
2023-04-14T17:42:52.038Z,17.54
2023-04-14T17:45:23.092Z,17.79
2023-04-14T17:47:51.544Z,18.00
2023-04-14T17:50:18.424Z,17.79
2023-04-14T17:52:45.722Z,18.04
2023-04-14T17:55:12.655Z,17.92
2023-04-14T17:57:40.753Z,18.09
2023-04-14T18:00:09.609Z,17.85
2023-04-14T18:02:40.258Z,17.49
2023-04-14T18:05:09.451Z,17.66
2023-04-14T18:07:36.977Z,17.66
2023-04-14T18:10:04.789Z,18.23
2023-04-14T18:12:31.546Z,18.06
2023-04-14T18:15:00.239Z,17.77
2023-04-14T18:17:26.904Z,17.76
2023-04-14T18:19:58.827Z,17.51
2023-04-14T18:22:25.988Z,17.61
2023-04-14T18:24:52.941Z,16.35
2023-04-14T18:29:49.940Z,17.70
2023-04-14T18:32:16.550Z,17.49
2023-04-14T18:34:43.481Z,17.38
2023-04-14T18:37:10.457Z,17.36
2023-04-14T18:39:37.813Z,17.61
2023-04-14T18:42:04.674Z,17.75
2023-04-14T18:44:31.454Z,17.14
2023-04-14T18:46:58.087Z,16.93
2023-04-14T18:49:25.072Z,16.70
2023-04-14T18:51:53.097Z,17.14
2023-04-14T18:54:21.303Z,17.36
2023-04-14T18:56:48.166Z,17.56
2023-04-14T18:59:14.861Z,17.41
2023-04-14T19:01:41.496Z,17.44
2023-04-14T19:04:08.419Z,17.34
2023-04-14T19:06:35.169Z,16.74
2023-04-14T19:09:02.175Z,16.57
2023-04-14T19:11:29.375Z,16.64
2023-04-14T19:13:56.143Z,16.65
2023-04-14T19:16:23.057Z,16.99
2023-04-14T19:18:49.688Z,16.96
2023-04-14T19:21:16.546Z,16.62
2023-04-14T19:23:43.296Z,16.47
2023-04-14T19:26:11.558Z,16.70
2023-04-14T19:28:42.695Z,17.02
2023-04-14T19:31:09.688Z,16.60
2023-04-14T19:33:37.653Z,16.23
2023-04-14T19:36:11.095Z,16.57
2023-04-14T19:38:38.713Z,16.13
2023-04-14T19:41:06.486Z,16.46
2023-04-14T19:43:33.033Z,16.47
2023-04-14T19:46:04.562Z,16.47
2023-04-14T19:48:33.065Z,16.39
2023-04-14T19:51:00.369Z,16.13
2023-04-14T19:53:27.385Z,15.67
2023-04-14T19:55:55.935Z,16.14
2023-04-14T19:58:24.566Z,15.98
2023-04-14T20:00:52.275Z,15.91
2023-04-14T20:03:20.300Z,16.06
2023-04-14T20:05:51.286Z,15.80
2023-04-14T20:08:19.071Z,16.00
2023-04-14T20:10:50.932Z,16.02
2023-04-14T20:13:19.517Z,16.09
2023-04-14T20:15:46.927Z,16.04
2023-04-14T20:18:13.638Z,15.85
2023-04-14T20:20:40.793Z,15.89
2023-04-14T20:23:07.744Z,15.77
2023-04-14T20:25:36.183Z,15.57
2023-04-14T20:28:04.115Z,15.77
2023-04-14T20:30:32.281Z,15.78
2023-04-14T20:33:00.316Z,15.96
2023-04-14T20:35:28.084Z,15.86
2023-04-14T20:37:55.567Z,15.77
2023-04-14T20:40:22.460Z,15.63
2023-04-14T20:42:49.331Z,15.54
2023-04-14T20:45:16.046Z,15.61
2023-04-14T20:47:42.828Z,15.61
2023-04-14T20:50:09.781Z,15.36
2023-04-14T20:52:36.588Z,15.34
2023-04-14T20:55:03.702Z,15.41
2023-04-14T20:57:30.447Z,15.23
2023-04-14T20:59:57.113Z,15.07
2023-04-14T21:02:23.904Z,14.55
2023-04-14T21:04:52.261Z,14.82
2023-04-14T21:07:18.915Z,14.97
2023-04-14T21:09:45.557Z,15.11
2023-04-14T21:12:14.444Z,14.99
2023-04-14T21:15:42.230Z,15.16
2023-04-14T21:17:30.298Z,15.21
2023-04-14T21:19:57.589Z,14.96
2023-04-14T21:22:24.256Z,14.91
2023-04-14T21:24:50.868Z,14.98
2023-04-14T21:27:17.690Z,14.74
2023-04-14T21:29:44.817Z,14.91
2023-04-14T21:32:11.558Z,15.04
2023-04-14T21:34:38.206Z,14.93
2023-04-14T21:37:04.972Z,14.72
2023-04-14T21:39:33.284Z,14.81
2023-04-14T21:42:00.290Z,14.67
2023-04-14T21:44:27.411Z,14.56
2023-04-14T21:46:56.338Z,14.72
2023-04-14T21:49:23.096Z,14.92
2023-04-14T21:51:50.344Z,14.91
2023-04-14T21:54:17.263Z,14.98
2023-04-14T21:56:45.098Z,14.83
2023-04-14T21:59:12.501Z,14.85
2023-04-14T22:01:39.716Z,14.89
2023-04-14T22:04:06.758Z,14.73
2023-04-14T22:06:35.360Z,14.99
2023-04-14T22:09:02.414Z,14.94
2023-04-14T22:11:30.856Z,15.12
2023-04-14T22:13:58.357Z,15.00
2023-04-14T22:16:25.629Z,14.89
2023-04-14T22:18:52.551Z,14.24
2023-04-14T22:21:19.210Z,14.54
2023-04-14T22:23:45.962Z,14.74
2023-04-14T22:26:13.491Z,14.70
2023-04-14T22:28:41.058Z,14.57
2023-04-14T22:31:07.915Z,14.43
2023-04-14T22:33:34.930Z,14.55
2023-04-14T22:36:03.831Z,14.44
2023-04-14T22:38:31.102Z,14.57
2023-04-14T22:40:57.745Z,14.55
2023-04-14T22:43:25.504Z,14.54
2023-04-14T22:45:52.720Z,14.34
2023-04-14T22:48:19.494Z,14.24
2023-04-14T22:50:46.263Z,14.50
2023-04-14T22:53:12.910Z,14.71
2023-04-14T22:55:39.543Z,14.55
2023-04-14T22:58:06.275Z,14.64
2023-04-14T23:00:33.409Z,14.28
2023-04-14T23:03:00.608Z,14.25
2023-04-14T23:05:27.434Z,14.30
2023-04-14T23:07:54.583Z,14.40
2023-04-14T23:10:21.172Z,13.45
2023-04-14T23:12:47.915Z,13.15
2023-04-14T23:15:14.646Z,13.09
2023-04-14T23:17:41.777Z,13.13
2023-04-14T23:20:08.867Z,13.11
2023-04-14T23:22:38.625Z,13.38
2023-04-14T23:25:06.110Z,13.73
2023-04-14T23:27:33.387Z,13.70
2023-04-14T23:29:59.958Z,14.06
2023-04-14T23:32:28.646Z,13.93
2023-04-14T23:34:55.228Z,13.93
2023-04-14T23:37:22.474Z,13.90
2023-04-14T23:39:49.128Z,13.82
2023-04-14T23:42:15.924Z,13.56
2023-04-14T23:44:43.024Z,13.46
2023-04-14T23:47:10.469Z,13.02
2023-04-14T23:49:37.235Z,12.93
2023-04-14T23:52:04.602Z,13.06
2023-04-14T23:54:31.809Z,13.30
2023-04-14T23:56:58.491Z,13.41
2023-04-14T23:59:25.141Z,13.08
